Time;durP1;ratioP1;P1;durP2;ratioP2;P2;SDS_P1;SDS_P2;PMS_P1;PMS_P2;Temp;Humidity;BMP_temperature;BMP_pressure;BME280_temperature;BME280_humidity;BME280_pressure;Samples;Min_cycle;Max_cycle;Signal;HPM_P1;HPM_P2
2022/05/16 00:02:23;;;;;;;16.20;4.35;;;;;;;;;;5083367;28;20115;-77
2022/05/16 00:04:50;;;;;;;14.82;5.03;;;;;;;;;;5086501;28;20153;-77
2022/05/16 00:07:16;;;;;;;13.65;4.45;;;;;;;;;;5083991;28;20096;-76
2022/05/16 00:09:42;;;;;;;23.63;4.43;;;;;;;;;;5084586;28;20044;-77
2022/05/16 00:12:09;;;;;;;22.13;5.10;;;;;;;;;;5085698;28;20024;-76
2022/05/16 00:14:36;;;;;;;16.45;5.03;;;;;;;;;;5084378;28;20040;-76
2022/05/16 00:17:02;;;;;;;16.15;4.80;;;;;;;;;;5069424;28;20031;-77
2022/05/16 00:19:28;;;;;;;17.73;5.22;;;;;;;;;;5083121;28;20020;-77
2022/05/16 00:21:54;;;;;;;14.63;4.78;;;;;;;;;;5088262;28;20036;-77
2022/05/16 00:24:24;;;;;;;14.85;4.85;;;;;;;;;;5082905;28;20489;-78
2022/05/16 00:26:50;;;;;;;13.43;4.60;;;;;;;;;;5084135;28;20036;-76
2022/05/16 00:29:16;;;;;;;19.23;4.90;;;;;;;;;;5086992;28;20051;-78
2022/05/16 00:31:42;;;;;;;20.42;4.82;;;;;;;;;;5086394;28;20036;-79
2022/05/16 00:34:08;;;;;;;12.43;4.38;;;;;;;;;;5084122;28;20035;-75
2022/05/16 00:36:34;;;;;;;13.35;4.15;;;;;;;;;;5088112;28;20404;-76
2022/05/16 00:39:00;;;;;;;18.30;4.82;;;;;;;;;;5086126;28;20388;-74
2022/05/16 00:41:26;;;;;;;13.27;4.43;;;;;;;;;;5082815;28;20033;-75
2022/05/16 00:43:57;;;;;;;13.35;4.95;;;;;;;;;;5082412;28;20036;-80
2022/05/16 00:46:23;;;;;;;;;;;;;;;;;;5082836;28;20031;-75
2022/05/16 00:48:49;;;;;;;18.20;5.10;;;;;;;;;;5086450;28;19912;-75
2022/05/16 00:51:20;;;;;;;14.68;4.28;;;;;;;;;;5084590;28;20493;-75
2022/05/16 00:53:47;;;;;;;20.15;4.90;;;;;;;;;;5085797;28;20474;-77
2022/05/16 00:56:14;;;;;;;20.80;4.88;;;;;;;;;;5085826;28;20029;-78
2022/05/16 00:58:41;;;;;;;22.23;4.97;;;;;;;;;;5081243;28;20481;-77
2022/05/16 01:06:42;;;;;;;17.50;4.95;;;;;;;;;;5082765;28;20043;-76
2022/05/16 01:09:09;;;;;;;13.52;5.03;;;;;;;;;;5077474;28;20087;-76
2022/05/16 01:11:37;;;;;;;18.73;4.75;;;;;;;;;;5083356;28;20024;-76
2022/05/16 01:14:04;;;;;;;17.58;4.75;;;;;;;;;;5082519;28;20035;-78
2022/05/16 01:16:30;;;;;;;16.67;4.95;;;;;;;;;;5081800;28;20032;-77
2022/05/16 01:18:56;;;;;;;14.90;3.97;;;;;;;;;;5081809;28;20537;-76
2022/05/16 01:21:34;;;;;;;14.30;4.82;;;;;;;;;;5080784;28;20029;-77
2022/05/16 01:24:07;;;;;;;16.65;4.57;;;;;;;;;;5083149;28;20500;-76
2022/05/16 01:26:33;;;;;;;16.67;5.03;;;;;;;;;;5080493;28;20024;-76
2022/05/16 01:28:59;;;;;;;15.18;4.93;;;;;;;;;;5080059;28;20035;-77
2022/05/16 01:31:25;;;;;;;10.63;4.07;;;;;;;;;;5086963;28;20030;-76
2022/05/16 01:33:51;;;;;;;17.05;4.70;;;;;;;;;;5082977;28;20319;-79
2022/05/16 01:36:17;;;;;;;18.85;5.68;;;;;;;;;;5080919;28;20492;-77
2022/05/16 01:38:43;;;;;;;16.88;5.15;;;;;;;;;;5063041;28;20040;-79
2022/05/16 01:41:11;;;;;;;15.45;4.68;;;;;;;;;;5079624;28;20074;-77
2022/05/16 01:43:58;;;;;;;17.40;5.63;;;;;;;;;;5080540;28;20053;-79
2022/05/16 01:46:26;;;;;;;15.70;4.93;;;;;;;;;;5076239;28;20065;-82
2022/05/16 01:48:52;;;;;;;14.63;5.22;;;;;;;;;;5080165;28;20028;-77
2022/05/16 01:51:19;;;;;;;20.45;5.00;;;;;;;;;;5080663;28;20036;-78
2022/05/16 01:53:45;;;;;;;14.68;5.30;;;;;;;;;;5081002;28;20024;-76
2022/05/16 01:56:12;;;;;;;13.77;5.18;;;;;;;;;;5083865;28;20495;-77
2022/05/16 01:58:40;;;;;;;20.27;5.38;;;;;;;;;;5083632;28;20544;-75
2022/05/16 02:01:06;;;;;;;18.42;5.32;;;;;;;;;;5083368;28;20036;-76
2022/05/16 02:03:32;;;;;;;15.48;5.15;;;;;;;;;;5085978;28;20027;-74
2022/05/16 02:05:59;;;;;;;17.40;5.40;;;;;;;;;;5082285;28;20047;-77
2022/05/16 02:08:26;;;;;;;15.25;4.78;;;;;;;;;;5083226;28;20048;-79
2022/05/16 02:10:52;;;;;;;20.40;5.30;;;;;;;;;;5080769;28;20082;-78
2022/05/16 02:13:18;;;;;;;18.48;5.20;;;;;;;;;;5086370;28;20427;-78
2022/05/16 02:15:45;;;;;;;15.30;4.82;;;;;;;;;;5083302;28;20077;-77
2022/05/16 02:18:12;;;;;;;14.48;4.80;;;;;;;;;;5078706;28;20028;-78
2022/05/16 02:20:38;;;;;;;18.25;5.10;;;;;;;;;;5081129;28;20024;-77
2022/05/16 02:25:53;;;;;;;15.95;5.57;;;;;;;;;;5081809;28;20057;-77
2022/05/16 02:28:20;;;;;;;16.50;5.13;;;;;;;;;;5082385;28;20032;-77
2022/05/16 02:30:47;;;;;;;13.68;5.63;;;;;;;;;;5081467;28;20028;-76
2022/05/16 02:33:14;;;;;;;17.52;5.05;;;;;;;;;;5083096;28;20032;-77
2022/05/16 02:35:41;;;;;;;14.00;5.15;;;;;;;;;;5081639;28;20028;-76
2022/05/16 02:38:08;;;;;;;15.77;5.18;;;;;;;;;;5085586;28;20024;-76
2022/05/16 02:40:34;;;;;;;12.35;5.03;;;;;;;;;;5080994;28;20024;-76
2022/05/16 02:43:00;;;;;;;17.90;4.95;;;;;;;;;;5075707;28;20031;-77
2022/05/16 02:45:27;;;;;;;14.63;5.18;;;;;;;;;;5075977;28;20036;-77
2022/05/16 02:47:54;;;;;;;13.68;5.40;;;;;;;;;;5082989;28;20453;-77
2022/05/16 02:50:23;;;;;;;20.52;5.40;;;;;;;;;;5079415;28;20039;-76
2022/05/16 02:52:49;;;;;;;15.65;5.57;;;;;;;;;;5078927;28;20024;-76
2022/05/16 02:55:15;;;;;;;16.90;5.18;;;;;;;;;;5080927;28;20032;-79
2022/05/16 02:57:41;;;;;;;16.50;5.22;;;;;;;;;;5079257;28;20056;-77
2022/05/16 03:00:08;;;;;;;16.73;6.07;;;;;;;;;;5081605;28;20043;-76
2022/05/16 03:02:35;;;;;;;18.40;5.65;;;;;;;;;;5083381;28;20062;-77
2022/05/16 03:05:01;;;;;;;18.60;5.80;;;;;;;;;;5082372;28;20043;-78
2022/05/16 03:07:27;;;;;;;17.00;6.25;;;;;;;;;;5078563;28;20273;-76
2022/05/16 03:09:53;;;;;;;15.30;5.47;;;;;;;;;;5084483;28;20516;-76
2022/05/16 03:12:19;;;;;;;14.85;5.22;;;;;;;;;;5083925;28;20036;-77
2022/05/16 03:14:45;;;;;;;19.00;6.80;;;;;;;;;;5083805;28;20051;-76
2022/05/16 03:17:12;;;;;;;20.23;5.88;;;;;;;;;;5084203;28;20083;-76
2022/05/16 03:19:38;;;;;;;14.40;5.70;;;;;;;;;;5067928;28;20017;-76
2022/05/16 03:22:05;;;;;;;20.25;6.03;;;;;;;;;;5084827;28;20080;-76
2022/05/16 03:24:31;;;;;;;15.32;5.13;;;;;;;;;;5066782;28;20032;-78
2022/05/16 03:26:58;;;;;;;17.48;6.28;;;;;;;;;;5088107;28;20042;-76
2022/05/16 03:29:24;;;;;;;14.77;5.03;;;;;;;;;;5085962;28;20150;-76
2022/05/16 03:31:50;;;;;;;16.50;6.03;;;;;;;;;;5084256;28;20134;-76
2022/05/16 03:34:16;;;;;;;21.75;5.57;;;;;;;;;;5083321;28;20054;-76
2022/05/16 03:36:42;;;;;;;15.55;6.28;;;;;;;;;;5083115;28;20096;-77
2022/05/16 03:41:53;;;;;;;17.70;5.88;;;;;;;;;;5086782;28;20085;-76
2022/05/16 03:44:20;;;;;;;15.75;6.15;;;;;;;;;;5086528;28;20024;-77
2022/05/16 03:46:47;;;;;;;16.83;6.00;;;;;;;;;;5088923;28;20028;-76
2022/05/16 03:49:13;;;;;;;17.17;6.18;;;;;;;;;;5083627;28;20505;-75
2022/05/16 03:51:39;;;;;;;16.63;5.95;;;;;;;;;;5088654;28;20047;-76
2022/05/16 03:54:05;;;;;;;15.55;6.32;;;;;;;;;;5079374;28;20029;-75
2022/05/16 03:56:32;;;;;;;21.17;5.80;;;;;;;;;;5087967;28;20036;-76
2022/05/16 03:58:58;;;;;;;20.13;5.55;;;;;;;;;;5085100;28;20028;-77
2022/05/16 04:01:25;;;;;;;16.80;5.70;;;;;;;;;;5087726;28;20122;-75
2022/05/16 04:03:53;;;;;;;19.05;6.40;;;;;;;;;;5086563;28;20035;-76
2022/05/16 04:06:19;;;;;;;13.65;6.03;;;;;;;;;;5084477;28;20046;-76
2022/05/16 04:08:46;;;;;;;17.02;6.18;;;;;;;;;;5082194;28;20093;-75
2022/05/16 04:11:14;;;;;;;23.23;7.57;;;;;;;;;;5085702;28;20028;-74
2022/05/16 04:13:41;;;;;;;14.88;5.70;;;;;;;;;;5085276;28;20058;-76
2022/05/16 04:16:07;;;;;;;16.17;6.15;;;;;;;;;;5080508;28;20063;-75
2022/05/16 04:18:34;;;;;;;15.00;5.80;;;;;;;;;;5083558;28;20454;-75
2022/05/16 04:21:00;;;;;;;15.55;6.20;;;;;;;;;;5082566;28;20024;-76
2022/05/16 04:23:26;;;;;;;20.73;5.97;;;;;;;;;;5084987;28;20469;-76
2022/05/16 04:25:52;;;;;;;17.90;6.10;;;;;;;;;;5084258;28;20405;-76
2022/05/16 04:28:18;;;;;;;18.98;6.28;;;;;;;;;;5083113;28;21210;-77
2022/05/16 04:30:44;;;;;;;33.40;6.35;;;;;;;;;;5085386;28;20028;-76
2022/05/16 04:33:10;;;;;;;20.30;6.30;;;;;;;;;;5085113;28;20075;-75
2022/05/16 04:35:37;;;;;;;15.88;5.45;;;;;;;;;;5085589;28;20081;-77
2022/05/16 04:38:03;;;;;;;22.10;6.68;;;;;;;;;;5085232;28;20466;-76
2022/05/16 04:40:29;;;;;;;17.45;5.85;;;;;;;;;;5086485;28;20032;-76
2022/05/16 04:42:55;;;;;;;18.48;6.63;;;;;;;;;;5083475;28;20258;-75
2022/05/16 04:45:26;;;;;;;16.00;5.82;;;;;;;;;;5080265;28;20055;-76
2022/05/16 04:47:52;;;;;;;;;;;;;;;;;;5085867;28;20036;-76
2022/05/16 04:50:21;;;;;;;18.95;6.13;;;;;;;;;;5083975;28;20622;-75
2022/05/16 04:52:47;;;;;;;14.55;6.32;;;;;;;;;;5084746;28;20035;-76
2022/05/16 04:55:14;;;;;;;14.00;6.15;;;;;;;;;;5065913;28;20028;-74
2022/05/16 04:57:40;;;;;;;16.48;5.95;;;;;;;;;;5089769;28;20098;-78
2022/05/16 05:00:07;;;;;;;18.05;5.47;;;;;;;;;;5089192;28;20548;-73
2022/05/16 05:02:33;;;;;;;23.23;6.47;;;;;;;;;;5082188;28;20091;-68
2022/05/16 05:05:00;;;;;;;14.48;6.00;;;;;;;;;;5083635;28;20130;-68
2022/05/16 05:07:26;;;;;;;23.67;6.50;;;;;;;;;;5081148;28;20241;-68
2022/05/16 05:15:22;;;;;;;15.77;5.70;;;;;;;;;;5084124;28;20047;-69
2022/05/16 05:17:48;;;;;;;19.88;5.30;;;;;;;;;;5085758;28;20031;-69
2022/05/16 05:20:16;;;;;;;13.15;4.82;;;;;;;;;;5082658;28;20032;-68
2022/05/16 05:22:46;;;;;;;19.60;4.85;;;;;;;;;;5081431;28;20024;-69
2022/05/16 05:25:15;;;;;;;14.30;6.10;;;;;;;;;;5083334;28;20445;-70
2022/05/16 05:27:42;;;;;;;15.03;5.37;;;;;;;;;;5083741;28;20294;-70
2022/05/16 05:30:10;;;;;;;14.65;4.97;;;;;;;;;;5084653;28;20097;-68
2022/05/16 05:32:36;;;;;;;15.60;4.78;;;;;;;;;;5078286;28;20033;-69
2022/05/16 05:35:03;;;;;;;12.65;4.55;;;;;;;;;;5083828;28;20114;-67
2022/05/16 05:37:30;;;;;;;14.40;4.88;;;;;;;;;;5083177;28;20093;-69
2022/05/16 05:40:00;;;;;;;14.18;5.15;;;;;;;;;;5081270;28;20494;-68
2022/05/16 05:42:26;;;;;;;11.55;4.97;;;;;;;;;;5083766;28;20494;-68
2022/05/16 05:44:52;;;;;;;10.70;4.82;;;;;;;;;;5078301;28;20032;-68
2022/05/16 05:47:18;;;;;;;14.77;4.38;;;;;;;;;;5081527;28;20335;-68
2022/05/16 05:49:45;;;;;;;12.15;5.22;;;;;;;;;;5086858;28;20388;-68
2022/05/16 05:52:11;;;;;;;9.40;4.00;;;;;;;;;;5084263;28;20036;-69
2022/05/16 05:54:37;;;;;;;10.60;4.78;;;;;;;;;;5084277;28;20115;-70
2022/05/16 05:57:06;;;;;;;11.13;4.78;;;;;;;;;;5082735;28;20493;-69
2022/05/16 05:59:32;;;;;;;14.93;4.50;;;;;;;;;;5083384;28;20016;-69
2022/05/16 06:01:58;;;;;;;11.52;4.20;;;;;;;;;;5081934;28;20035;-69
2022/05/16 06:04:24;;;;;;;16.42;4.97;;;;;;;;;;5081568;28;20035;-69
2022/05/16 06:06:50;;;;;;;11.95;5.00;;;;;;;;;;5077447;28;20024;-68
2022/05/16 06:09:16;;;;;;;12.85;5.47;;;;;;;;;;5082868;28;20052;-69
2022/05/16 06:11:42;;;;;;;12.98;4.70;;;;;;;;;;5086040;28;20134;-69
2022/05/16 06:14:08;;;;;;;16.05;5.30;;;;;;;;;;5079968;28;20028;-69
2022/05/16 06:16:34;;;;;;;12.65;4.70;;;;;;;;;;5081451;28;20020;-70
2022/05/16 06:19:00;;;;;;;22.50;5.55;;;;;;;;;;5087183;28;20058;-68
2022/05/16 06:21:26;;;;;;;13.68;4.85;;;;;;;;;;5083455;28;20105;-69
2022/05/16 06:23:52;;;;;;;10.43;5.18;;;;;;;;;;5080883;28;20102;-69
2022/05/16 06:26:18;;;;;;;13.85;5.13;;;;;;;;;;5075454;28;20082;-69
2022/05/16 06:28:44;;;;;;;20.52;5.95;;;;;;;;;;5082754;28;20028;-68
2022/05/16 06:31:10;;;;;;;18.48;6.35;;;;;;;;;;5085456;28;20027;-69
2022/05/16 06:33:37;;;;;;;22.27;6.25;;;;;;;;;;5080812;28;20028;-69
2022/05/16 06:36:05;;;;;;;18.40;5.72;;;;;;;;;;5089468;28;20119;-68
2022/05/16 06:38:32;;;;;;;17.27;6.47;;;;;;;;;;5082908;28;20236;-69
2022/05/16 06:40:59;;;;;;;15.65;5.90;;;;;;;;;;5082443;28;20077;-68
2022/05/16 06:43:26;;;;;;;21.08;6.18;;;;;;;;;;5086669;28;20047;-69
2022/05/16 06:45:53;;;;;;;17.35;6.38;;;;;;;;;;5090193;28;20039;-70
2022/05/16 06:48:19;;;;;;;15.25;6.10;;;;;;;;;;5083000;28;20034;-68
2022/05/16 06:50:46;;;;;;;12.55;6.57;;;;;;;;;;5087121;28;20046;-68
2022/05/16 06:53:13;;;;;;;14.75;6.72;;;;;;;;;;5087749;28;20036;-68
2022/05/16 06:55:39;;;;;;;18.30;6.25;;;;;;;;;;5091667;28;20039;-67
2022/05/16 06:58:05;;;;;;;20.40;6.47;;;;;;;;;;5085432;28;20433;-68
2022/05/16 07:00:31;;;;;;;18.58;7.18;;;;;;;;;;5085118;28;20408;-69
2022/05/16 07:02:57;;;;;;;19.80;8.05;;;;;;;;;;5082526;28;20162;-69
2022/05/16 07:05:23;;;;;;;12.30;7.68;;;;;;;;;;5082763;28;20123;-69
2022/05/16 07:07:51;;;;;;;19.90;7.32;;;;;;;;;;5088368;28;20060;-68
2022/05/16 07:10:17;;;;;;;19.15;7.70;;;;;;;;;;5075843;28;20032;-69
2022/05/16 07:12:44;;;;;;;14.50;7.10;;;;;;;;;;5080064;28;20044;-68
2022/05/16 07:15:10;;;;;;;21.65;7.43;;;;;;;;;;5087168;28;20038;-69
2022/05/16 07:17:36;;;;;;;19.95;7.50;;;;;;;;;;5091973;28;20082;-69
2022/05/16 07:20:03;;;;;;;17.08;6.97;;;;;;;;;;5082249;28;20452;-68
2022/05/16 07:22:29;;;;;;;19.17;7.57;;;;;;;;;;5082908;28;20071;-69
2022/05/16 07:24:57;;;;;;;19.42;7.80;;;;;;;;;;5090906;28;20501;-68
2022/05/16 07:30:10;;;;;;;16.80;7.30;;;;;;;;;;5091179;28;20053;-69
2022/05/16 07:32:42;;;;;;;20.42;7.70;;;;;;;;;;5092445;28;20036;-69
2022/05/16 07:35:10;;;;;;;20.77;8.30;;;;;;;;;;5082733;28;20457;-69
2022/05/16 07:37:36;;;;;;;18.60;8.35;;;;;;;;;;5096362;28;20089;-70
2022/05/16 07:40:03;;;;;;;21.25;7.80;;;;;;;;;;5086625;28;20117;-69
2022/05/16 07:42:29;;;;;;;16.45;8.05;;;;;;;;;;5079753;28;20126;-69
2022/05/16 07:44:55;;;;;;;18.27;8.35;;;;;;;;;;5078691;28;20126;-69
2022/05/16 07:47:21;;;;;;;21.27;8.98;;;;;;;;;;5084746;28;20122;-69
2022/05/16 07:49:47;;;;;;;18.45;8.05;;;;;;;;;;5093705;28;20557;-69
2022/05/16 07:52:13;;;;;;;16.63;8.98;;;;;;;;;;5087479;28;20213;-69
2022/05/16 07:54:39;;;;;;;19.98;8.30;;;;;;;;;;5074976;28;20110;-69
2022/05/16 07:57:05;;;;;;;19.98;8.57;;;;;;;;;;5088394;28;20126;-69
2022/05/16 07:59:31;;;;;;;17.95;7.95;;;;;;;;;;5085122;28;20040;-69
2022/05/16 08:01:57;;;;;;;21.70;8.27;;;;;;;;;;5079294;28;20048;-68
2022/05/16 08:04:23;;;;;;;23.08;7.93;;;;;;;;;;5085883;28;20043;-69
2022/05/16 08:06:49;;;;;;;17.50;7.90;;;;;;;;;;5082630;28;20474;-69
2022/05/16 08:12:00;;;;;;;23.65;9.02;;;;;;;;;;5088776;28;20415;-69
2022/05/16 08:14:26;;;;;;;20.48;7.85;;;;;;;;;;5083136;28;20448;-68
2022/05/16 08:16:52;;;;;;;21.15;7.55;;;;;;;;;;5079679;28;20051;-69
2022/05/16 08:19:19;;;;;;;22.65;8.02;;;;;;;;;;5088459;28;20093;-68
2022/05/16 08:21:48;;;;;;;21.80;7.78;;;;;;;;;;5093793;28;20115;-68
2022/05/16 08:24:14;;;;;;;19.77;8.00;;;;;;;;;;5088791;28;20024;-68
2022/05/16 08:26:40;;;;;;;22.80;7.25;;;;;;;;;;5085933;28;20032;-68
2022/05/16 08:29:06;;;;;;;15.32;7.72;;;;;;;;;;5089641;28;20172;-69
2022/05/16 08:31:32;;;;;;;17.58;7.22;;;;;;;;;;5092145;28;20043;-69
2022/05/16 08:33:58;;;;;;;39.08;8.77;;;;;;;;;;5079259;28;20505;-68
2022/05/16 08:41:56;;;;;;;16.63;7.10;;;;;;;;;;5088121;28;20477;-68
2022/05/16 08:44:29;;;;;;;15.77;7.45;;;;;;;;;;5078343;28;20047;-69
2022/05/16 08:46:58;;;;;;;11.73;6.70;;;;;;;;;;5089381;28;20035;-69
2022/05/16 08:49:32;;;;;;;14.90;6.80;;;;;;;;;;5083288;28;20733;-69
2022/05/16 08:52:10;;;;;;;18.27;7.35;;;;;;;;;;5093434;28;20032;-69
2022/05/16 08:54:55;;;;;;;16.38;7.03;;;;;;;;;;5082579;28;20032;-69
2022/05/16 08:57:28;;;;;;;24.23;7.32;;;;;;;;;;5086377;28;20053;-68
2022/05/16 09:00:05;;;;;;;15.15;7.22;;;;;;;;;;5087289;28;20105;-69
2022/05/16 09:02:32;;;;;;;19.13;8.50;;;;;;;;;;5089641;28;20036;-68
2022/05/16 09:05:05;;;;;;;15.73;7.43;;;;;;;;;;5090119;28;20512;-69
2022/05/16 09:07:51;;;;;;;23.67;7.35;;;;;;;;;;5093686;28;20082;-68
2022/05/16 09:10:25;;;;;;;13.00;7.00;;;;;;;;;;5082174;28;20501;-69
2022/05/16 09:13:10;;;;;;;14.45;6.95;;;;;;;;;;5084505;28;20050;-69
2022/05/16 09:15:42;;;;;;;15.10;6.90;;;;;;;;;;5086447;28;20040;-68
2022/05/16 09:18:08;;;;;;;21.55;6.78;;;;;;;;;;5089709;28;20024;-69
2022/05/16 09:20:41;;;;;;;18.30;7.63;;;;;;;;;;5088663;28;20361;-70
2022/05/16 09:23:26;;;;;;;15.55;7.28;;;;;;;;;;5092120;28;20032;-69
2022/05/16 09:26:00;;;;;;;13.15;5.80;;;;;;;;;;5088176;28;20102;-72
2022/05/16 09:28:35;;;;;;;14.27;6.20;;;;;;;;;;5085269;28;20220;-70
2022/05/16 09:31:14;;;;;;;10.65;5.85;;;;;;;;;;5088935;28;20034;-70
2022/05/16 09:33:45;;;;;;;18.00;6.65;;;;;;;;;;5084172;28;20023;-70
2022/05/16 09:36:12;;;;;;;11.43;5.95;;;;;;;;;;5087612;28;20031;-68
2022/05/16 09:38:44;;;;;;;21.50;6.53;;;;;;;;;;5099235;28;20023;-69
2022/05/16 09:41:10;;;;;;;11.88;6.43;;;;;;;;;;5081711;28;20188;-69
2022/05/16 09:43:51;;;;;;;13.13;5.90;;;;;;;;;;5086417;28;20484;-71
2022/05/16 09:46:22;;;;;;;13.07;5.78;;;;;;;;;;5087162;28;20028;-70
2022/05/16 09:48:55;;;;;;;11.77;6.45;;;;;;;;;;5091200;28;20028;-70
2022/05/16 09:51:22;;;;;;;18.45;8.00;;;;;;;;;;5086847;28;20130;-70
2022/05/16 09:53:49;;;;;;;14.27;6.68;;;;;;;;;;5083533;28;20111;-69
2022/05/16 09:56:21;;;;;;;13.32;6.60;;;;;;;;;;5079300;28;20035;-71
2022/05/16 09:59:05;;;;;;;19.73;8.10;;;;;;;;;;5084485;28;20031;-70
2022/05/16 10:01:38;;;;;;;20.60;6.95;;;;;;;;;;5076996;28;20032;-70
2022/05/16 10:04:10;;;;;;;16.30;7.75;;;;;;;;;;5091535;28;20335;-69
2022/05/16 10:06:37;;;;;;;13.93;6.43;;;;;;;;;;5081243;28;20028;-71
2022/05/16 10:09:07;;;;;;;12.57;6.78;;;;;;;;;;5083644;28;20039;-69
2022/05/16 10:11:33;;;;;;;;;;;;;;;;;;5095841;28;20031;-70
2022/05/16 10:13:59;;;;;;;16.70;6.20;;;;;;;;;;5084556;28;19920;-70
2022/05/16 10:16:27;;;;;;;12.35;5.50;;;;;;;;;;5093923;28;20036;-69
2022/05/16 10:18:57;;;;;;;11.95;5.57;;;;;;;;;;5086508;28;20097;-69
2022/05/16 10:21:29;;;;;;;14.27;5.13;;;;;;;;;;5086817;28;20364;-69
2022/05/16 10:23:56;;;;;;;15.07;4.97;;;;;;;;;;5082764;28;20074;-72
2022/05/16 10:26:23;;;;;;;11.98;5.15;;;;;;;;;;5084564;28;20033;-70
2022/05/16 10:28:54;;;;;;;9.05;4.82;;;;;;;;;;5083153;28;20111;-73
2022/05/16 10:34:13;;;;;;;12.55;5.22;;;;;;;;;;5090662;28;20059;-70
2022/05/16 10:36:39;;;;;;;11.85;5.82;;;;;;;;;;5089470;28;20047;-72
2022/05/16 10:39:07;;;;;;;14.73;5.90;;;;;;;;;;5089505;28;20031;-72
2022/05/16 10:41:36;;;;;;;11.95;6.82;;;;;;;;;;5074456;28;20028;-68
2022/05/16 10:44:09;;;;;;;12.45;7.03;;;;;;;;;;5080059;28;20687;-79
2022/05/16 10:46:38;;;;;;;14.20;7.10;;;;;;;;;;5094379;28;20054;-78
2022/05/16 10:49:06;;;;;;;20.33;7.07;;;;;;;;;;5083735;28;20024;-78
2022/05/16 10:51:39;;;;;;;13.60;6.72;;;;;;;;;;5076988;28;20048;-80
2022/05/16 10:54:09;;;;;;;19.25;5.30;;;;;;;;;;5093794;28;20510;-85
2022/05/16 10:56:38;;;;;;;26.75;4.95;;;;;;;;;;5092301;28;20028;-82
2022/05/16 10:59:23;;;;;;;26.85;4.63;;;;;;;;;;5086773;28;20032;-81
2022/05/16 11:02:08;;;;;;;17.35;5.05;;;;;;;;;;5080776;28;20078;-80
2022/05/16 11:04:34;;;;;;;14.65;5.13;;;;;;;;;;5077142;28;20028;-77
2022/05/16 11:07:26;;;;;;;14.38;5.90;;;;;;;;;;5089585;28;20016;-78
2022/05/16 11:10:08;;;;;;;18.08;6.45;;;;;;;;;;5061320;28;20158;-79
2022/05/16 11:12:53;;;;;;;16.25;7.47;;;;;;;;;;5092041;28;20036;-81
2022/05/16 11:15:25;;;;;;;15.52;7.78;;;;;;;;;;5087560;28;20024;-80
2022/05/16 11:17:58;;;;;;;15.40;8.05;;;;;;;;;;5089552;28;20024;-81
2022/05/16 11:20:33;;;;;;;20.58;8.07;;;;;;;;;;5085060;28;20028;-82
2022/05/16 11:22:59;;;;;;;19.60;8.63;;;;;;;;;;5084236;28;20070;-78
2022/05/16 11:25:31;;;;;;;24.10;9.45;;;;;;;;;;5085625;28;20590;-85
2022/05/16 11:28:00;;;;;;;24.48;10.57;;;;;;;;;;5092211;28;20040;-88
2022/05/16 11:30:39;;;;;;;14.70;8.57;;;;;;;;;;5098956;28;20020;-81
2022/05/16 11:33:18;;;;;;;19.98;10.45;;;;;;;;;;5092315;28;20050;-81
2022/05/16 11:35:45;;;;;;;19.42;9.82;;;;;;;;;;5079844;28;20047;-78
2022/05/16 11:38:11;;;;;;;17.70;8.63;;;;;;;;;;5082950;28;20024;-80
2022/05/16 11:40:39;;;;;;;15.73;8.50;;;;;;;;;;5088697;28;20070;-83
2022/05/16 11:43:11;;;;;;;15.40;8.32;;;;;;;;;;5085371;28;20032;-80
2022/05/16 11:45:37;;;;;;;13.40;8.60;;;;;;;;;;5083897;28;20024;-80
2022/05/16 11:48:23;;;;;;;22.23;8.40;;;;;;;;;;5086277;28;20139;-83
2022/05/16 11:51:06;;;;;;;19.30;8.88;;;;;;;;;;5080360;28;20019;-80
2022/05/16 11:53:44;;;;;;;16.98;10.32;;;;;;;;;;5093575;28;20035;-80
2022/05/16 12:02:22;;;;;;;14.30;10.65;;;;;;;;;;5094852;28;20086;-79
2022/05/16 12:04:53;;;;;;;20.30;13.90;;;;;;;;;;5083657;28;20050;-80
2022/05/16 12:07:19;;;;;;;;;;;;;;;;;;5088393;28;20502;-80
2022/05/16 12:09:53;;;;;;;30.50;19.60;;;;;;;;;;5088221;28;19911;-79
2022/05/16 12:12:31;;;;;;;34.47;22.40;;;;;;;;;;5094263;28;20040;-79
2022/05/16 12:15:21;;;;;;;27.85;20.70;;;;;;;;;;5104695;28;20036;-78
2022/05/16 12:17:53;;;;;;;27.80;23.13;;;;;;;;;;5096307;28;20035;-78
2022/05/16 12:20:38;;;;;;;37.22;26.65;;;;;;;;;;5083283;28;20028;-76
2022/05/16 12:23:05;;;;;;;39.38;27.00;;;;;;;;;;5085336;28;20031;-78
2022/05/16 12:25:33;;;;;;;30.70;22.02;;;;;;;;;;5082460;28;20066;-80
2022/05/16 12:28:15;;;;;;;27.98;19.80;;;;;;;;;;5086786;28;20035;-78
2022/05/16 12:30:49;;;;;;;28.83;19.65;;;;;;;;;;5086437;28;20065;-77
2022/05/16 12:33:48;;;;;;;29.60;18.45;;;;;;;;;;5088048;28;20036;-76
2022/05/16 12:36:15;;;;;;;33.50;16.50;;;;;;;;;;5087788;28;20081;-79
2022/05/16 12:38:41;;;;;;;25.08;14.80;;;;;;;;;;5088739;28;20036;-79
2022/05/16 12:41:39;;;;;;;23.42;14.88;;;;;;;;;;5089280;28;20020;-75
2022/05/16 12:44:25;;;;;;;20.10;10.68;;;;;;;;;;5089960;28;20038;-77
2022/05/16 12:46:59;;;;;;;20.67;10.45;;;;;;;;;;5087846;28;20108;-77
2022/05/16 12:49:50;;;;;;;20.67;12.40;;;;;;;;;;5081373;28;20042;-80
2022/05/16 12:52:35;;;;;;;26.83;12.13;;;;;;;;;;5083363;28;20040;-79
2022/05/16 12:55:01;;;;;;;25.00;13.52;;;;;;;;;;5079902;28;20028;-77
2022/05/16 12:57:31;;;;;;;25.08;14.35;;;;;;;;;;5097644;28;21010;-80
2022/05/16 12:59:57;;;;;;;23.17;15.52;;;;;;;;;;5082285;28;20085;-76
2022/05/16 13:02:29;;;;;;;30.88;17.48;;;;;;;;;;5082064;28;20127;-78
2022/05/16 13:04:58;;;;;;;29.33;18.17;;;;;;;;;;5083966;28;20046;-82
2022/05/16 13:07:43;;;;;;;29.20;18.90;;;;;;;;;;5082251;28;20032;-74
2022/05/16 13:10:09;;;;;;;25.95;17.77;;;;;;;;;;5087169;28;20035;-75
2022/05/16 13:12:35;;;;;;;35.72;20.05;;;;;;;;;;5083826;28;20077;-77
2022/05/16 13:15:10;;;;;;;36.67;19.58;;;;;;;;;;5083840;28;20031;-79
2022/05/16 13:17:39;;;;;;;33.80;20.52;;;;;;;;;;5083865;28;20041;-78
2022/05/16 13:20:08;;;;;;;31.60;20.15;;;;;;;;;;5081357;28;20048;-73
2022/05/16 13:22:35;;;;;;;27.65;18.13;;;;;;;;;;5082670;28;20040;-81
2022/05/16 13:25:01;;;;;;;31.77;17.08;;;;;;;;;;5080442;28;20028;-77
2022/05/16 13:30:16;;;;;;;27.70;15.50;;;;;;;;;;5080695;28;20047;-73
2022/05/16 13:32:42;;;;;;;24.42;14.70;;;;;;;;;;5083504;28;20026;-75
2022/05/16 13:35:10;;;;;;;26.15;13.45;;;;;;;;;;5083751;28;20020;-76
2022/05/16 13:37:43;;;;;;;21.95;13.93;;;;;;;;;;5085025;28;20027;-75
2022/05/16 13:40:13;;;;;;;27.65;14.52;;;;;;;;;;5082788;28;20023;-75
2022/05/16 13:42:41;;;;;;;16.33;10.45;;;;;;;;;;5088236;28;20024;-76
2022/05/16 13:45:08;;;;;;;20.15;9.90;;;;;;;;;;5080786;28;20040;-73
2022/05/16 13:47:38;;;;;;;24.55;9.20;;;;;;;;;;5085059;28;20089;-76
2022/05/16 13:50:05;;;;;;;19.00;9.25;;;;;;;;;;5082857;28;20088;-76
2022/05/16 13:52:37;;;;;;;19.35;8.38;;;;;;;;;;5081106;28;20123;-75
2022/05/16 13:55:08;;;;;;;20.65;7.13;;;;;;;;;;5081897;28;20103;-74
2022/05/16 13:57:34;;;;;;;18.65;8.35;;;;;;;;;;5084566;28;20058;-77
2022/05/16 14:00:10;;;;;;;13.10;5.97;;;;;;;;;;5085579;28;20051;-78
2022/05/16 14:02:36;;;;;;;12.55;4.88;;;;;;;;;;5083887;28;20032;-75
2022/05/16 14:05:10;;;;;;;14.55;5.15;;;;;;;;;;5084804;28;20032;-78
2022/05/16 14:07:36;;;;;;;11.15;4.43;;;;;;;;;;5079200;28;20042;-77
2022/05/16 14:10:08;;;;;;;13.02;4.55;;;;;;;;;;5080977;28;20484;-75
2022/05/16 14:12:35;;;;;;;13.50;4.75;;;;;;;;;;5081494;28;20044;-74
2022/05/16 14:15:07;;;;;;;17.67;4.53;;;;;;;;;;5086301;28;20032;-76
2022/05/16 14:17:40;;;;;;;14.95;4.35;;;;;;;;;;5078444;28;20035;-76
2022/05/16 14:20:18;;;;;;;20.27;4.93;;;;;;;;;;5082217;28;20027;-80
2022/05/16 14:22:45;;;;;;;15.13;4.00;;;;;;;;;;5084282;28;20028;-77
2022/05/16 14:25:15;;;;;;;13.48;4.20;;;;;;;;;;5085078;28;20050;-78
2022/05/16 14:27:41;;;;;;;9.30;4.20;;;;;;;;;;5083830;28;20023;-76
2022/05/16 14:30:14;;;;;;;15.45;4.75;;;;;;;;;;5083851;28;20038;-76
2022/05/16 14:32:44;;;;;;;12.95;5.22;;;;;;;;;;5080617;28;20097;-74
2022/05/16 14:35:11;;;;;;;16.90;5.07;;;;;;;;;;5078244;28;20115;-77
2022/05/16 14:37:38;;;;;;;12.77;4.80;;;;;;;;;;5078148;28;20073;-76
2022/05/16 14:40:04;;;;;;;15.18;5.30;;;;;;;;;;5078242;28;20028;-78
2022/05/16 14:42:35;;;;;;;19.75;5.43;;;;;;;;;;5081092;28;20039;-75
2022/05/16 14:45:16;;;;;;;16.50;5.68;;;;;;;;;;5084635;28;20109;-75
2022/05/16 14:47:44;;;;;;;14.40;6.65;;;;;;;;;;5085888;28;20588;-76
2022/05/16 14:50:12;;;;;;;21.13;8.10;;;;;;;;;;5081709;28;20024;-75
2022/05/16 14:52:40;;;;;;;14.85;7.45;;;;;;;;;;5081092;28;20032;-75
2022/05/16 14:55:06;;;;;;;17.73;8.10;;;;;;;;;;5081014;28;20074;-75
2022/05/16 14:57:33;;;;;;;17.90;7.38;;;;;;;;;;5080917;28;20028;-75
2022/05/16 15:00:00;;;;;;;21.48;8.05;;;;;;;;;;5060842;28;20055;-77
2022/05/16 15:05:10;;;;;;;24.58;7.18;;;;;;;;;;5084679;28;20176;-76
2022/05/16 15:07:39;;;;;;;21.80;8.18;;;;;;;;;;5074348;28;20036;-76
2022/05/16 15:10:10;;;;;;;19.35;7.65;;;;;;;;;;5077647;28;20509;-77
2022/05/16 15:12:36;;;;;;;17.85;7.32;;;;;;;;;;5076593;28;20114;-75
2022/05/16 15:15:02;;;;;;;22.10;6.53;;;;;;;;;;5080490;28;20145;-75
2022/05/16 15:17:29;;;;;;;11.32;5.13;;;;;;;;;;5085555;28;20052;-76
2022/05/16 15:19:55;;;;;;;20.80;5.78;;;;;;;;;;5084087;28;20032;-76
2022/05/16 15:22:21;;;;;;;14.57;5.13;;;;;;;;;;5085268;28;20039;-75
2022/05/16 15:24:51;;;;;;;15.52;4.97;;;;;;;;;;5084250;28;20044;-76